Time;durP1;ratioP1;P1;durP2;ratioP2;P2;SDS_P1;SDS_P2;PMS_P1;PMS_P2;Temp;Humidity;BMP_temperature;BMP_pressure;BME280_temperature;BME280_humidity;BME280_pressure;Samples;Min_cycle;Max_cycle;Signal;HPM_P1;HPM_P2
2021/09/22 00:02:07;;;;;;;23.40;2.40;;;11.50;99.90;;;10.12;100.00;102249.47;4995343;28;20167;-75
2021/09/22 00:04:34;;;;;;;30.30;3.90;;;11.40;99.90;;;10.06;100.00;102243.44;4995270;28;20532;-75
2021/09/22 00:07:01;;;;;;;27.38;2.72;;;11.40;99.90;;;10.03;100.00;102245.25;4969944;28;20042;-75
2021/09/22 00:09:28;;;;;;;16.52;3.00;;;11.40;99.90;;;10.02;100.00;102244.38;4976438;28;20080;-75
2021/09/22 00:11:55;;;;;;;23.35;2.50;;;11.40;99.90;;;10.05;100.00;102249.56;4986708;28;20504;-75
2021/09/22 00:14:21;;;;;;;26.20;2.85;;;11.30;99.90;;;9.92;100.00;102242.81;4976004;28;20143;-76
2021/09/22 00:16:47;;;;;;;16.45;2.03;;;11.30;99.90;;;9.97;100.00;102251.50;4976057;28;20346;-75
2021/09/22 00:19:13;;;;;;;23.42;2.85;;;11.30;99.90;;;9.94;100.00;102267.34;4973810;28;20064;-75
2021/09/22 00:21:39;;;;;;;25.92;2.92;;;11.30;99.90;;;9.89;100.00;102256.03;4954445;28;20507;-75
2021/09/22 00:24:06;;;;;;;21.77;2.63;;;11.20;99.90;;;9.84;100.00;102250.84;4955258;28;20052;-75
2021/09/22 00:26:32;;;;;;;23.33;2.72;;;11.20;99.90;;;9.91;100.00;102264.75;4974640;28;20550;-75
2021/09/22 00:28:58;;;;;;;20.73;2.47;;;11.20;99.90;;;9.85;100.00;102262.28;4974380;28;20027;-75
2021/09/22 00:31:24;;;;;;;29.45;2.58;;;11.20;99.90;;;9.89;100.00;102258.66;4974669;28;20112;-75
2021/09/22 00:33:50;;;;;;;28.58;3.15;;;11.20;99.90;;;9.84;100.00;102252.63;4970724;28;20022;-75
2021/09/22 00:36:16;;;;;;;17.13;2.85;;;11.20;99.90;;;9.77;100.00;102240.50;4983119;28;20509;-75
2021/09/22 00:38:42;;;;;;;26.92;2.72;;;11.10;99.90;;;9.83;100.00;102251.75;4962549;28;20072;-75
2021/09/22 00:41:08;;;;;;;21.63;3.25;;;11.20;99.90;;;9.89;100.00;102250.75;4975251;28;20139;-75
2021/09/22 00:43:35;;;;;;;26.10;3.15;;;11.20;99.90;;;9.84;100.00;102244.72;4981085;28;20397;-75
2021/09/22 00:46:04;;;;;;;27.35;2.75;;;11.20;99.90;;;9.82;100.00;102252.66;4974968;28;20031;-75
2021/09/22 00:48:34;;;;;;;18.63;2.55;;;11.20;99.90;;;9.79;100.00;102249.22;4975064;28;20442;-75
2021/09/22 00:51:08;;;;;;;29.60;3.42;;;11.10;99.90;;;9.76;100.00;102250.16;4974820;28;20081;-75
2021/09/22 00:53:35;;;;;;;26.83;4.18;;;11.10;99.90;;;9.67;100.00;102237.16;4974363;28;20046;-75
2021/09/22 00:56:03;;;;;;;35.85;3.50;;;11.00;99.90;;;9.68;100.00;102245.94;4974265;28;20131;-75
2021/09/22 00:58:31;;;;;;;19.45;2.88;;;11.00;99.90;;;9.62;100.00;102254.78;4947217;28;20035;-75
2021/09/22 01:00:57;;;;;;;19.85;2.38;;;11.00;99.90;;;9.50;100.00;102240.09;4974927;28;20072;-75
2021/09/22 01:03:24;;;;;;;26.30;2.92;;;10.90;99.90;;;9.43;100.00;102238.47;4972761;28;20027;-75
2021/09/22 01:05:53;;;;;;;26.60;3.38;;;10.80;99.90;;;9.38;100.00;102235.06;4973117;28;20034;-75
2021/09/22 01:08:21;;;;;;;20.63;2.67;;;10.80;99.90;;;9.30;100.00;102244.84;4973390;28;20065;-75
2021/09/22 01:10:48;;;;;;;20.23;2.33;;;10.70;99.90;;;9.26;100.00;102245.78;4970475;28;20063;-76
2021/09/22 01:13:16;;;;;;;22.60;3.00;;;10.60;99.90;;;9.17;100.00;102242.41;4994204;28;20049;-76
2021/09/22 01:15:43;;;;;;;30.45;3.17;;;10.60;99.90;;;9.22;100.00;102256.38;4994580;28;22271;-75
2021/09/22 01:18:20;;;;;;;29.02;2.78;;;10.60;99.90;;;9.19;100.00;102261.66;4990799;28;20097;-75
2021/09/22 01:20:58;;;;;;;24.70;2.53;;;10.60;99.90;;;9.21;100.00;102253.75;4971428;28;20064;-75
2021/09/22 01:23:27;;;;;;;28.33;3.00;;;10.60;99.90;;;9.24;100.00;102266.84;4972778;28;20018;-75
2021/09/22 01:25:54;;;;;;;34.92;3.50;;;10.70;99.90;;;9.22;100.00;102258.09;4973357;28;20064;-75
2021/09/22 01:28:29;;;;;;;31.95;3.45;;;10.60;99.90;;;9.15;100.00;102264.38;4970570;28;20523;-75
2021/09/22 01:31:00;;;;;;;30.10;3.08;;;10.50;99.90;;;9.15;100.00;102256.47;4973534;28;20057;-76
2021/09/22 01:33:27;;;;;;;21.77;2.72;;;10.50;99.90;;;9.06;100.00;102254.00;4972161;28;20034;-75
2021/09/22 01:35:53;;;;;;;25.55;2.80;;;10.50;99.90;;;9.06;100.00;102246.13;4974338;28;20061;-75
2021/09/22 01:38:24;;;;;;;25.50;2.85;;;10.50;99.90;;;9.12;100.00;102251.28;4972351;28;20057;-75
2021/09/22 01:41:06;;;;;;;36.22;2.90;;;10.50;99.90;;;9.02;100.00;102251.41;4987655;28;20152;-75
2021/09/22 01:43:37;;;;;;;22.55;2.53;;;10.40;99.90;;;8.94;100.00;102244.53;4970248;28;20073;-75
2021/09/22 01:46:06;;;;;;;21.85;2.92;;;10.40;99.90;;;8.83;100.00;102242.06;4974073;28;20554;-75
2021/09/22 01:48:32;;;;;;;22.98;2.92;;;10.30;99.90;;;8.77;100.00;102237.81;4972902;28;20452;-75
2021/09/22 01:51:02;;;;;;;20.05;3.08;;;10.30;99.90;;;8.77;100.00;102250.94;4971583;28;20481;-75
2021/09/22 01:53:29;;;;;;;33.95;3.47;;;10.30;99.90;;;8.83;100.00;102258.72;4970773;28;20053;-75
2021/09/22 01:55:58;;;;;;;30.88;3.58;;;10.30;99.90;;;8.80;100.00;102263.16;4956330;28;20019;-75
2021/09/22 01:58:26;;;;;;;26.80;2.42;;;10.30;99.90;;;8.85;100.00;102282.31;4971478;28;20590;-75
2021/09/22 02:00:57;;;;;;;21.63;2.95;;;10.30;99.90;;;8.85;100.00;102297.22;5007001;28;20474;-75
2021/09/22 02:03:23;;;;;;;20.70;2.83;;;10.30;99.90;;;8.89;100.00;102326.06;4991130;28;20447;-75
2021/09/22 02:05:49;;;;;;;32.65;2.97;;;10.40;99.90;;;8.95;100.00;102336.47;4992275;28;20064;-75
2021/09/22 02:08:15;;;;;;;36.13;2.97;;;10.40;99.90;;;9.02;100.00;102347.75;4974912;28;20084;-75
2021/09/22 02:10:42;;;;;;;28.02;2.83;;;10.50;99.90;;;9.04;100.00;102361.75;4980456;28;20071;-75
2021/09/22 02:13:09;;;;;;;25.55;2.90;;;10.50;99.90;;;8.98;100.00;102348.69;4992204;28;20086;-75
2021/09/22 02:15:35;;;;;;;33.20;2.70;;;10.40;99.90;;;8.88;100.00;102340.09;4992506;28;20066;-75
2021/09/22 02:18:02;;;;;;;32.63;3.20;;;10.30;99.90;;;8.85;100.00;102341.88;5007113;28;20065;-75
2021/09/22 02:20:28;;;;;;;20.42;2.22;;;10.30;99.90;;;8.86;100.00;102352.38;4985146;28;20163;-75
2021/09/22 02:22:54;;;;;;;25.00;2.60;;;10.30;99.90;;;8.93;100.00;102366.28;4991420;28;20071;-75
2021/09/22 02:25:21;;;;;;;31.33;3.10;;;10.40;99.90;;;8.96;100.00;102376.75;4991572;28;20075;-76
2021/09/22 02:27:49;;;;;;;22.17;2.60;;;10.40;99.90;;;9.01;100.00;102390.72;4991327;28;20452;-75
2021/09/22 02:30:20;;;;;;;34.85;3.35;;;10.50;99.90;;;8.97;100.00;102396.88;5005455;28;20071;-75
2021/09/22 02:32:48;;;;;;;21.95;3.13;;;10.50;99.90;;;8.99;100.00;102387.22;4990580;28;20082;-75
2021/09/22 02:35:15;;;;;;;30.52;3.15;;;10.40;99.90;;;8.97;100.00;102410.03;4991380;28;20508;-75
2021/09/22 02:37:41;;;;;;;31.88;3.28;;;10.40;99.90;;;9.01;100.00;102399.44;4989563;28;20056;-75
2021/09/22 02:40:14;;;;;;;29.38;2.58;;;10.50;99.90;;;9.08;100.00;102402.88;4991593;28;20095;-75
2021/09/22 02:42:42;;;;;;;30.20;2.92;;;10.50;99.90;;;9.13;100.00;102403.66;4991259;28;20064;-75
2021/09/22 02:45:09;;;;;;;38.80;3.40;;;10.50;99.90;;;9.18;100.00;102411.50;4989270;28;20052;-75
2021/09/22 02:47:35;;;;;;;35.97;3.42;;;10.60;99.90;;;9.20;100.00;102402.72;4992195;28;20048;-75
2021/09/22 02:50:02;;;;;;;24.98;3.22;;;10.60;99.90;;;9.28;100.00;102439.38;4999191;28;20060;-76
2021/09/22 02:52:28;;;;;;;28.33;3.30;;;10.60;99.90;;;9.29;100.00;102429.72;4992070;28;20096;-75
2021/09/22 02:54:54;;;;;;;24.92;3.60;;;10.70;99.90;;;9.29;100.00;102430.63;4991730;28;20066;-75
2021/09/22 02:57:20;;;;;;;25.38;3.17;;;10.60;99.90;;;9.30;100.00;102413.06;4991552;28;20366;-75
2021/09/22 02:59:46;;;;;;;29.02;3.80;;;10.60;99.90;;;9.20;100.00;102397.44;4983963;28;20052;-75
2021/09/22 03:02:12;;;;;;;41.00;2.85;;;10.60;99.90;;;9.13;100.00;102393.16;4978312;28;20066;-75
2021/09/22 03:04:38;;;;;;;48.33;3.35;;;10.60;99.90;;;9.22;100.00;102397.41;4989142;28;20060;-75
2021/09/22 03:07:04;;;;;;;37.58;3.40;;;10.60;99.90;;;9.20;100.00;102394.81;4989308;28;20060;-75
2021/09/22 03:09:31;;;;;;;31.10;3.67;;;10.60;99.90;;;9.24;100.00;102398.25;4993107;28;20060;-75
2021/09/22 03:11:57;;;;;;;35.55;3.50;;;10.70;99.90;;;9.28;100.00;102426.22;4992797;28;20080;-75
2021/09/22 03:14:23;;;;;;;37.55;3.58;;;10.70;99.90;;;9.41;100.00;102429.56;4981846;28;20102;-75
2021/09/22 03:16:49;;;;;;;32.80;3.38;;;10.80;99.90;;;9.43;100.00;102440.94;4993009;28;20062;-75
2021/09/22 03:19:15;;;;;;;40.63;3.80;;;10.80;99.90;;;9.50;100.00;102452.22;4990356;28;20540;-75
2021/09/22 03:21:41;;;;;;;39.88;3.38;;;10.90;99.90;;;9.53;100.00;102468.84;4992516;28;20072;-75
2021/09/22 03:24:07;;;;;;;33.00;3.67;;;10.90;99.90;;;9.50;100.00;102462.75;4993939;28;20061;-75
2021/09/22 03:26:33;;;;;;;33.17;3.20;;;10.90;99.90;;;9.44;100.00;102451.44;4996414;28;20118;-75
2021/09/22 03:28:59;;;;;;;27.63;2.60;;;10.90;99.90;;;9.49;100.00;102458.38;4993522;28;20064;-75
2021/09/22 03:31:25;;;;;;;29.83;3.45;;;10.90;99.90;;;9.56;100.00;102445.09;4970014;28;20049;-75
2021/09/22 03:33:51;;;;;;;36.40;3.60;;;10.90;99.90;;;9.60;100.00;102445.94;4992710;28;20065;-75
2021/09/22 03:36:20;;;;;;;43.15;4.50;;;11.00;99.90;;;9.65;100.00;102455.50;4992117;28;20042;-75
2021/09/22 03:38:46;;;;;;;42.22;3.65;;;11.00;99.90;;;9.70;100.00;102467.69;4990207;28;20539;-75
2021/09/22 03:41:12;;;;;;;42.15;3.85;;;11.10;99.90;;;9.68;100.00;102459.84;4996003;28;20064;-75
2021/09/22 03:43:38;;;;;;;32.28;3.15;;;11.10;99.90;;;9.69;100.00;102458.09;4991963;28;20034;-75
2021/09/22 03:46:05;;;;;;;44.40;3.58;;;11.10;99.90;;;9.69;100.00;102460.72;4987055;28;20155;-75
2021/09/22 03:48:31;;;;;;;43.25;4.30;;;11.10;99.90;;;9.73;100.00;102458.00;4991033;28;20067;-75
2021/09/22 03:50:57;;;;;;;27.58;3.50;;;11.10;99.90;;;9.72;100.00;102455.41;4994395;28;20509;-75
2021/09/22 03:53:23;;;;;;;33.03;3.58;;;11.10;99.90;;;9.72;100.00;102461.53;4985199;28;20119;-75
2021/09/22 03:55:50;;;;;;;41.08;3.85;;;11.10;99.90;;;9.72;100.00;102442.25;4995204;28;20547;-76
2021/09/22 03:58:17;;;;;;;36.67;3.38;;;11.10;99.90;;;9.78;100.00;102447.41;4994473;28;20106;-75
2021/09/22 04:00:43;;;;;;;34.85;3.58;;;11.10;99.90;;;9.74;100.00;102448.34;4974681;28;20053;-75
2021/09/22 04:03:09;;;;;;;31.80;3.72;;;11.20;99.90;;;9.87;100.00;102457.81;4994608;28;20034;-76
2021/09/22 04:05:35;;;;;;;31.00;4.68;;;11.20;99.90;;;9.92;100.00;102468.25;4994544;28;20029;-75
2021/09/22 04:08:02;;;;;;;27.92;3.03;;;11.30;99.90;;;9.93;100.00;102469.97;5007055;28;20052;-75
2021/09/22 04:10:29;;;;;;;29.88;3.70;;;11.30;99.90;;;9.88;100.00;102470.06;4994801;28;20041;-76
2021/09/22 04:12:55;;;;;;;29.25;3.50;;;11.20;99.90;;;9.81;100.00;102456.13;4995148;28;20175;-75
2021/09/22 04:15:22;;;;;;;37.80;3.92;;;11.20;99.90;;;9.80;100.00;102458.78;4991200;28;20040;-75
2021/09/22 04:17:48;;;;;;;33.15;3.33;;;11.10;99.90;;;9.81;100.00;102471.91;4989329;28;20581;-76
2021/09/22 04:20:14;;;;;;;40.95;5.22;;;11.10;99.90;;;9.76;100.00;102471.13;4990135;28;20068;-75
2021/09/22 04:22:40;;;;;;;29.30;3.20;;;11.20;99.90;;;9.73;100.00;102470.28;4990809;28;20068;-76
2021/09/22 04:25:09;;;;;;;30.08;3.17;;;;;;;9.64;100.00;102447.63;4973231;28;20068;-75
2021/09/22 04:27:36;;;;;;;42.72;5.07;;;11.00;99.90;;;9.58;100.00;102452.97;4990341;28;20049;-75
2021/09/22 04:30:06;;;;;;;35.78;3.35;;;11.00;99.90;;;9.52;100.00;102463.59;4982834;28;20037;-75
2021/09/22 04:32:32;;;;;;;41.65;3.85;;;10.90;99.90;;;9.47;100.00;102468.91;4990062;28;20064;-76
2021/09/22 04:35:01;;;;;;;38.03;3.53;;;10.90;99.90;;;9.44;100.00;102477.72;4990130;28;20115;-75
2021/09/22 04:37:34;;;;;;;32.00;4.18;;;10.90;99.90;;;9.44;100.00;102475.09;4964542;28;20171;-76
2021/09/22 04:40:06;;;;;;;36.75;5.22;;;10.90;99.90;;;9.41;100.00;102483.00;4986826;28;20433;-76
2021/09/22 04:42:32;;;;;;;40.97;3.80;;;10.80;99.90;;;9.42;100.00;102512.81;5006821;28;20139;-76
2021/09/22 04:44:58;;;;;;;25.15;3.28;;;10.80;99.90;;;9.39;100.00;102507.59;4990830;28;20026;-76
2021/09/22 04:47:25;;;;;;;27.63;3.85;;;10.80;99.90;;;9.37;100.00;102518.16;4990608;28;20420;-76
2021/09/22 04:49:51;;;;;;;36.53;3.70;;;10.80;99.90;;;9.41;100.00;102526.84;5004690;28;20091;-76
2021/09/22 04:52:17;;;;;;;33.70;3.60;;;10.90;99.90;;;9.44;100.00;102542.59;4963236;28;20441;-76
2021/09/22 04:54:43;;;;;;;29.92;3.20;;;10.90;99.90;;;9.44;100.00;102530.31;4973226;28;20029;-76
2021/09/22 04:57:09;;;;;;;27.45;3.35;;;10.90;99.90;;;9.53;100.00;102545.09;4980069;28;20056;-76
2021/09/22 04:59:35;;;;;;;31.67;2.47;;;11.00;99.90;;;9.47;100.00;102552.19;4963983;28;20086;-76
2021/09/22 05:02:01;;;;;;;29.10;3.72;;;11.00;99.90;;;9.52;100.00;102576.66;4986984;28;20056;-76
2021/09/22 05:04:27;;;;;;;26.17;3.60;;;11.00;99.90;;;9.53;100.00;102591.56;4989507;28;20092;-76
2021/09/22 05:06:53;;;;;;;36.60;3.42;;;11.00;99.90;;;9.55;100.00;102600.31;4979767;28;20068;-76
2021/09/22 05:09:19;;;;;;;32.53;4.13;;;11.00;99.90;;;9.54;100.00;102599.41;4979180;28;20100;-76
2021/09/22 05:11:45;;;;;;;34.05;3.83;;;11.00;99.90;;;9.54;100.00;102616.97;4995133;28;20072;-76
2021/09/22 05:14:11;;;;;;;32.45;3.97;;;11.00;99.90;;;9.61;100.00;102616.88;4988573;28;20038;-76
2021/09/22 05:16:37;;;;;;;25.52;3.65;;;11.10;99.90;;;9.59;100.00;102621.28;4981067;28;20029;-76
2021/09/22 05:19:03;;;;;;;29.33;2.78;;;11.10;99.90;;;9.61;100.00;102630.03;4990144;28;20032;-76
2021/09/22 05:21:29;;;;;;;37.03;3.22;;;11.10;99.90;;;9.64;100.00;102632.63;4961918;28;20063;-76
2021/09/22 05:23:55;;;;;;;34.80;3.05;;;11.10;99.90;;;9.70;100.00;102630.78;4958446;28;20130;-76
2021/09/22 05:26:21;;;;;;;37.80;3.17;;;11.20;99.90;;;9.74;100.00;102653.53;4969229;28;20052;-76
2021/09/22 05:28:47;;;;;;;30.20;3.42;;;11.20;99.90;;;9.83;100.00;102675.34;4969148;28;20073;-76
2021/09/22 05:31:13;;;;;;;42.58;3.45;;;11.20;99.90;;;9.88;100.00;102703.38;4947896;28;20069;-76
2021/09/22 05:33:39;;;;;;;31.60;3.03;;;11.30;99.90;;;9.94;100.00;102712.06;4958150;28;20113;-76
2021/09/22 05:36:06;;;;;;;34.53;3.67;;;11.40;99.90;;;10.00;100.00;102717.25;4963131;28;20131;-76
2021/09/22 05:38:32;;;;;;;37.88;3.95;;;11.40;99.90;;;10.09;100.00;102707.50;4961740;28;20029;-76
2021/09/22 05:40:58;;;;;;;28.38;3.53;;;11.50;99.90;;;10.15;100.00;102713.56;4961879;28;20061;-76
2021/09/22 05:43:24;;;;;;;39.70;3.92;;;11.60;99.90;;;10.24;100.00;102749.44;4985880;28;20565;-76
2021/09/22 05:45:50;;;;;;;32.63;3.30;;;11.70;99.90;;;10.32;100.00;102749.34;4968139;28;20048;-76
2021/09/22 05:48:16;;;;;;;30.08;3.75;;;11.70;99.90;;;10.37;100.00;102798.44;4971859;28;20626;-76
2021/09/22 05:50:43;;;;;;;39.90;3.45;;;11.80;99.90;;;10.43;100.00;102793.09;4969196;28;20088;-76
2021/09/22 05:55:18;;;;;;;29.23;3.83;;;11.80;99.90;;;10.45;100.00;102775.50;5048707;27;20436;-76
2021/09/22 05:57:44;;;;;;;29.27;4.07;;;11.90;99.90;;;10.49;100.00;102778.09;4999085;28;20400;-76
2021/09/22 06:00:11;;;;;;;35.05;3.35;;;11.90;99.90;;;10.51;100.00;102757.88;4991632;28;20431;-76
2021/09/22 06:02:37;;;;;;;37.70;3.58;;;11.90;99.90;;;10.52;100.00;102751.69;5018464;28;20109;-76
2021/09/22 06:05:03;;;;;;;26.27;3.35;;;11.90;99.90;;;10.57;100.00;102771.81;5003869;28;20147;-76
2021/09/22 06:07:31;;;;;;;38.85;4.07;;;12.00;99.90;;;10.57;100.00;102757.78;5017638;28;20025;-76
2021/09/22 06:09:58;;;;;;;32.53;2.88;;;12.00;99.90;;;10.58;100.00;102749.88;5018517;28;20037;-76
2021/09/22 06:12:24;;;;;;;38.75;4.32;;;12.00;99.90;;;10.64;100.00;102747.13;5015780;28;20411;-76
2021/09/22 06:14:50;;;;;;;36.65;3.47;;;12.10;99.90;;;10.66;100.00;102742.69;4999900;28;20068;-76
2021/09/22 06:17:16;;;;;;;40.53;4.15;;;12.10;99.90;;;10.72;100.00;102736.47;5030277;28;20056;-76
2021/09/22 06:19:43;;;;;;;37.88;3.28;;;12.10;99.90;;;10.71;100.00;102729.47;5016592;28;20037;-76
2021/09/22 06:22:09;;;;;;;49.25;4.72;;;12.10;99.90;;;10.74;100.00;102736.47;5013834;28;20026;-76
2021/09/22 06:24:35;;;;;;;34.33;4.20;;;12.10;99.90;;;10.75;100.00;102723.25;4989810;28;20032;-76
2021/09/22 06:27:01;;;;;;;27.42;3.83;;;12.10;99.90;;;10.74;100.00;102737.34;5009167;28;20056;-76
2021/09/22 06:29:27;;;;;;;37.00;3.85;;;12.10;99.90;;;10.76;100.00;102732.91;5025821;28;20025;-76
2021/09/22 06:31:55;;;;;;;35.28;4.57;;;12.10;99.90;;;10.77;100.00;102724.09;5016565;28;20452;-76
2021/09/22 06:34:21;;;;;;;31.95;3.83;;;12.20;99.90;;;10.77;100.00;102705.66;5041936;28;20048;-76
2021/09/22 06:36:47;;;;;;;36.28;4.00;;;12.20;99.90;;;10.80;100.00;102702.97;5018814;28;20056;-76
2021/09/22 06:39:13;;;;;;;29.98;4.20;;;12.20;99.90;;;10.80;100.00;102721.44;5009789;28;20167;-76
2021/09/22 06:41:39;;;;;;;30.77;3.85;;;12.20;99.90;;;10.79;100.00;102710.91;5024672;28;20041;-76
2021/09/22 06:44:08;;;;;;;31.90;3.20;;;12.20;99.90;;;10.78;100.00;102709.19;5025555;28;20427;-76
2021/09/22 06:46:34;;;;;;;34.72;3.65;;;12.10;99.90;;;10.75;100.00;102699.53;5017382;28;20104;-76
2021/09/22 06:49:00;;;;;;;42.88;3.78;;;12.10;99.90;;;10.77;100.00;102699.53;5026723;28;20125;-76
2021/09/22 06:51:26;;;;;;;42.65;3.80;;;12.10;99.90;;;10.78;100.00;102711.81;5041812;28;20071;-76
2021/09/22 06:53:54;;;;;;;21.60;3.00;;;12.10;99.90;;;10.79;100.00;102708.28;5021666;28;20038;-76
2021/09/22 06:56:24;;;;;;;37.10;3.72;;;12.20;99.90;;;10.79;100.00;102714.41;5014759;28;20391;-76
2021/09/22 06:58:50;;;;;;;26.88;3.10;;;12.20;99.90;;;10.80;100.00;102729.34;5007502;28;20052;-76
2021/09/22 07:01:16;;;;;;;42.72;4.18;;;12.20;99.90;;;10.83;100.00;102754.78;5049926;28;20065;-76
2021/09/22 07:03:42;;;;;;;28.25;3.33;;;12.20;99.90;;;10.82;100.00;102753.91;5018204;28;20370;-76
2021/09/22 07:06:09;;;;;;;23.65;3.58;;;12.20;99.90;;;10.84;100.00;102764.41;5001229;28;20114;-76
2021/09/22 07:08:35;;;;;;;43.00;4.18;;;12.20;99.90;;;10.82;100.00;102753.00;4981363;28;20064;-76
2021/09/22 07:11:01;;;;;;;45.13;4.53;;;12.20;99.90;;;10.84;100.00;102761.75;5020362;28;20066;-76
2021/09/22 07:13:27;;;;;;;44.97;4.28;;;12.20;99.90;;;10.84;100.00;102762.66;5005438;28;20064;-76
2021/09/22 07:15:53;;;;;;;35.13;4.30;;;12.20;99.90;;;10.85;100.00;102759.13;5005899;28;20401;-77
2021/09/22 07:18:20;;;;;;;43.42;4.30;;;12.20;99.90;;;10.84;100.00;102757.38;5002025;28;20088;-76
2021/09/22 07:20:49;;;;;;;39.58;4.15;;;12.20;99.90;;;10.87;100.00;102759.97;5002331;28;20520;-76
2021/09/22 07:23:15;;;;;;;36.53;4.45;;;12.30;99.90;;;10.89;100.00;102749.41;5009982;28;20072;-76
2021/09/22 07:25:42;;;;;;;41.40;3.50;;;12.30;99.90;;;10.95;100.00;102744.03;5006174;28;20113;-76
2021/09/22 07:28:08;;;;;;;31.48;4.20;;;12.40;99.90;;;10.97;100.00;102744.00;5003004;28;20137;-76
2021/09/22 07:30:34;;;;;;;39.58;3.60;;;12.40;99.90;;;10.97;100.00;102736.97;5005239;28;20037;-76
2021/09/22 07:33:01;;;;;;;35.25;3.85;;;12.40;99.90;;;10.99;100.00;102735.19;4985881;28;20021;-76
2021/09/22 07:35:29;;;;;;;40.15;4.57;;;12.40;99.90;;;11.06;100.00;102741.22;4989903;28;20380;-76
2021/09/22 07:37:55;;;;;;;25.45;3.72;;;12.50;99.90;;;11.12;100.00;102741.09;4982503;28;20033;-76
2021/09/22 07:40:22;;;;;;;37.72;4.45;;;12.50;99.90;;;11.13;100.00;102737.59;5003992;28;20105;-77
2021/09/22 07:42:48;;;;;;;27.52;3.28;;;12.50;99.90;;;11.14;100.00;102735.81;5000729;28;20464;-76
2021/09/22 07:45:15;;;;;;;19.02;3.17;;;12.50;99.90;;;11.18;100.00;102737.50;4993405;28;20525;-76
2021/09/22 07:47:43;;;;;;;24.23;3.45;;;12.60;99.90;;;11.19;100.00;102737.50;4990745;28;20067;-77
2021/09/22 07:50:12;;;;;;;37.63;3.85;;;12.50;99.90;;;11.08;100.00;102708.66;5004192;28;20059;-76
2021/09/22 07:52:39;;;;;;;33.72;3.40;;;12.50;99.90;;;11.08;100.00;102686.72;4985405;28;20060;-77
2021/09/22 07:55:09;;;;;;;32.72;4.97;;;12.50;99.90;;;11.12;100.00;102680.47;4985920;28;20075;-77
2021/09/22 07:57:35;;;;;;;27.73;3.15;;;12.60;99.90;;;11.26;100.00;102693.41;5001858;28;20123;-77
2021/09/22 08:00:03;;;;;;;37.22;4.10;;;12.70;99.90;;;11.34;100.00;102709.09;5001312;28;20026;-77
2021/09/22 08:02:29;;;;;;;38.33;4.07;;;12.80;99.90;;;11.45;100.00;102704.50;4989406;28;20133;-77
2021/09/22 08:04:55;;;;;;;32.08;4.47;;;12.80;99.90;;;11.54;100.00;102696.41;5002251;28;20030;-77
2021/09/22 08:07:21;;;;;;;33.75;4.65;;;12.90;99.90;;;11.62;100.00;102689.22;5004167;28;20520;-77
2021/09/22 08:09:48;;;;;;;30.25;3.72;;;13.00;99.90;;;11.66;100.00;102687.38;5003613;28;20087;-77
2021/09/22 08:12:14;;;;;;;33.22;3.42;;;13.00;99.90;;;11.68;100.00;102683.81;4995541;28;20087;-77
2021/09/22 08:14:42;;;;;;;34.35;4.00;;;13.10;99.90;;;11.93;100.00;102704.47;4995903;28;20068;-77
2021/09/22 08:17:12;;;;;;;40.20;3.97;;;13.30;99.90;;;12.06;100.00;102859.09;5013672;28;20063;-77
2021/09/22 08:19:38;;;;;;;26.25;3.72;;;13.40;99.90;;;12.18;100.00;102777.88;4977218;28;20017;-76
2021/09/22 08:22:05;;;;;;;38.33;5.15;;;13.60;99.90;;;12.30;100.00;103596.59;5012615;28;20064;-76
2021/09/22 08:24:33;;;;;;;35.17;4.55;;;13.70;99.90;;;12.51;100.00;103036.13;5024259;28;20114;-76
2021/09/22 08:27:00;;;;;;;38.70;4.80;;;13.80;99.90;;;12.54;100.00;102955.06;5001948;28;20060;-76
2021/09/22 08:29:26;;;;;;;37.25;4.55;;;13.90;99.90;;;12.50;100.00;102904.03;4992205;28;20037;-76
2021/09/22 08:31:53;;;;;;;38.47;4.55;;;13.80;99.90;;;12.45;100.00;102850.41;4989713;28;20022;-76
2021/09/22 08:34:23;;;;;;;24.42;4.80;;;13.80;99.90;;;12.42;100.00;102842.53;5001247;28;20088;-76
2021/09/22 08:36:49;;;;;;;31.08;4.53;;;13.90;99.90;;;12.64;100.00;102813.91;5005057;28;20033;-76
2021/09/22 08:39:17;;;;;;;29.00;4.80;;;14.00;99.90;;;12.64;100.00;102796.28;4981136;28;20037;-76
2021/09/22 08:41:45;;;;;;;35.22;4.10;;;14.00;99.90;;;12.68;100.00;102774.16;4995391;28;20018;-77
2021/09/22 08:44:14;;;;;;;21.77;3.35;;;14.20;99.90;;;12.90;100.00;102797.44;5000320;28;20068;-77
2021/09/22 08:46:44;;;;;;;25.17;3.22;;;14.30;99.90;;;12.96;100.00;102830.78;5023160;28;20428;-77
2021/09/22 08:49:12;;;;;;;28.10;3.60;;;14.20;99.90;;;12.74;100.00;102778.41;4998738;28;20485;-76
2021/09/22 08:51:39;;;;;;;23.50;3.60;;;14.10;99.90;;;12.63;100.00;102767.22;5007684;28;20046;-77
2021/09/22 08:54:06;;;;;;;37.78;4.25;;;14.00;99.90;;;12.56;100.00;102753.28;5002895;28;20401;-76
2021/09/22 08:56:32;;;;;;;45.05;3.65;;;14.00;99.90;;;12.62;100.00;102742.56;4984149;28;20365;-77
2021/09/22 08:58:58;;;;;;;27.85;3.60;;;14.00;99.90;;;12.70;100.00;102760.91;5007676;28;20076;-76
2021/09/22 09:01:27;;;;;;;38.10;4.75;;;14.20;99.90;;;12.89;100.00;102778.09;4983747;28;20124;-77
2021/09/22 09:04:27;;;;;;;33.47;3.92;;;14.20;99.90;;;12.95;100.00;102763.81;4959316;28;20045;-77
2021/09/22 09:06:58;;;;;;;38.05;4.10;;;14.30;99.90;;;13.01;100.00;102739.88;4978778;28;20034;-76
2021/09/22 09:09:41;;;;;;;24.67;3.28;;;14.40;99.90;;;13.13;100.00;102759.84;4966285;28;20073;-76
2021/09/22 09:12:34;;;;;;;41.97;4.82;;;14.40;99.90;;;13.06;100.00;102737.97;4966203;28;20038;-76
2021/09/22 09:15:08;;;;;;;30.83;4.88;;;14.40;99.90;;;13.11;100.00;102745.81;4964304;28;20071;-76
2021/09/22 09:17:49;;;;;;;26.77;3.92;;;14.50;99.90;;;13.22;100.00;102767.59;4988362;28;20353;-77
2021/09/22 09:20:24;;;;;;;36.35;4.50;;;14.50;99.90;;;13.27;100.00;102752.44;4968619;28;20171;-76
2021/09/22 09:23:22;;;;;;;47.13;5.50;;;14.60;99.90;;;13.27;100.00;102733.06;4965747;28;20099;-76
2021/09/22 09:26:11;;;;;;;30.58;4.90;;;14.60;99.90;;;13.33;100.00;102747.03;4956703;28;20801;-76
2021/09/22 09:28:48;;;;;;;29.80;4.28;;;14.70;99.90;;;13.40;100.00;102753.03;4981550;28;20026;-76
2021/09/22 09:31:16;;;;;;;37.13;4.88;;;14.70;99.90;;;13.37;100.00;102731.06;4980127;28;20037;-76
2021/09/22 09:33:55;;;;;;;33.40;4.07;;;14.80;99.90;;;13.51;100.00;102739.53;4955948;28;20417;-76
2021/09/22 09:36:34;;;;;;;30.83;4.78;;;14.90;99.90;;;13.51;100.00;102737.72;4952313;28;20660;-75
2021/09/22 09:39:24;;;;;;;24.00;3.53;;;14.90;99.90;;;13.73;100.00;102782.16;4979565;28;20439;-75
2021/09/22 09:41:57;;;;;;;29.33;3.92;;;15.10;99.90;;;13.85;100.00;102750.06;4961079;28;20060;-75
2021/09/22 09:45:03;;;;;;;28.33;4.60;;;15.20;99.90;;;13.82;100.00;102738.66;4974013;28;20052;-75
2021/09/22 09:48:02;;;;;;;30.40;3.75;;;15.20;99.90;;;13.87;100.00;102731.47;4961800;28;20493;-75
2021/09/22 09:50:57;;;;;;;26.42;4.18;;;15.30;99.90;;;14.14;100.00;102757.16;4998865;28;20044;-75
2021/09/22 09:54:12;;;;;;;29.52;3.40;;;15.50;99.90;;;14.32;100.00;102771.66;4954513;28;20030;-74
2021/09/22 09:56:49;;;;;;;26.70;3.47;;;15.70;99.90;;;14.47;100.00;102705.81;4979606;28;20534;-74
2021/09/22 09:59:43;;;;;;;23.92;3.13;;;15.80;99.90;;;14.36;99.48;102740.59;4966284;28;20390;-74
2021/09/22 10:02:48;;;;;;;32.78;5.13;;;15.70;99.90;;;14.32;98.75;102720.44;4958527;28;20061;-74
2021/09/22 10:05:19;;;;;;;26.00;4.07;;;15.70;99.90;;;14.40;100.00;102688.38;4969665;28;20100;-75
2021/09/22 10:07:53;;;;;;;29.70;3.78;;;15.80;99.90;;;14.65;99.22;102715.03;4968665;28;20037;-75
2021/09/22 10:10:21;;;;;;;33.95;4.10;;;16.00;99.90;;;14.72;96.27;102727.16;4967305;28;20099;-75
2021/09/22 10:12:51;;;;;;;26.75;3.47;;;16.10;99.90;;;14.86;97.73;102729.34;4975229;28;20044;-74